createdAt,value
2018-04-14T00:00:05.617Z,13.38
2018-04-14T00:01:05.631Z,13.38
2018-04-14T00:02:05.901Z,13.38
2018-04-14T00:03:06.547Z,13.38
2018-04-14T00:04:06.184Z,13.38
2018-04-14T00:05:05.785Z,13.38
2018-04-14T00:06:05.558Z,13.38
2018-04-14T00:07:06.598Z,13.38
2018-04-14T00:08:06.384Z,13.44
2018-04-14T00:09:05.621Z,13.50
2018-04-14T00:10:06.087Z,13.44
2018-04-14T00:11:06.110Z,13.50
2018-04-14T00:12:05.877Z,13.56
2018-04-14T00:13:06.505Z,13.69
2018-04-14T00:14:11.062Z,13.69
2018-04-14T00:15:05.711Z,13.62
2018-04-14T00:16:06.516Z,13.62
2018-04-14T00:17:05.728Z,13.62
2018-04-14T00:18:05.673Z,13.69
2018-04-14T00:19:05.678Z,13.75
2018-04-14T00:20:06.024Z,13.75
2018-04-14T00:21:05.614Z,13.69
2018-04-14T00:22:06.419Z,13.69
2018-04-14T00:23:06.096Z,13.69
2018-04-14T00:24:05.945Z,13.69
2018-04-14T00:25:10.804Z,13.69
2018-04-14T00:26:06.270Z,13.69
2018-04-14T00:27:06.105Z,13.69
2018-04-14T00:28:06.349Z,13.75
2018-04-14T00:29:06.422Z,13.69
2018-04-14T00:30:06.588Z,13.69
2018-04-14T00:31:06.360Z,13.69
2018-04-14T00:32:06.185Z,13.69
2018-04-14T00:33:06.203Z,13.75
2018-04-14T00:34:06.176Z,13.75
2018-04-14T00:35:05.728Z,13.75
2018-04-14T00:36:06.651Z,13.75
2018-04-14T00:37:06.657Z,13.69
2018-04-14T00:38:05.864Z,13.69
2018-04-14T00:39:05.857Z,13.69
2018-04-14T00:40:05.916Z,13.75
2018-04-14T00:41:05.801Z,13.69
2018-04-14T00:42:05.639Z,13.69
2018-04-14T00:43:05.864Z,13.69
2018-04-14T00:44:05.784Z,13.69
2018-04-14T00:45:06.340Z,13.75
2018-04-14T00:46:06.499Z,13.69
2018-04-14T00:47:06.512Z,13.62
2018-04-14T00:48:11.337Z,13.56
2018-04-14T00:49:06.019Z,13.56
2018-04-14T00:50:05.689Z,13.62
2018-04-14T00:51:06.973Z,13.56
2018-04-14T00:52:06.412Z,13.56
2018-04-14T00:53:06.094Z,13.50
2018-04-14T00:54:05.694Z,13.56
2018-04-14T00:55:06.024Z,13.62
2018-04-14T00:56:06.095Z,13.62
2018-04-14T00:57:05.777Z,13.62
2018-04-14T00:58:06.397Z,13.56
2018-04-14T00:59:06.023Z,13.62
2018-04-14T01:00:06.177Z,13.62
2018-04-14T01:01:05.861Z,13.69
2018-04-14T01:02:05.945Z,13.62
2018-04-14T01:03:06.093Z,13.69
2018-04-14T01:04:06.352Z,13.62
2018-04-14T01:05:06.418Z,13.62
2018-04-14T01:06:05.640Z,13.62
2018-04-14T01:07:06.266Z,13.62
2018-04-14T01:08:05.954Z,13.75
2018-04-14T01:09:11.427Z,13.69
2018-04-14T01:10:06.103Z,13.62
2018-04-14T01:11:06.011Z,13.69
2018-04-14T01:12:05.552Z,13.62
2018-04-14T01:13:05.708Z,13.56
2018-04-14T01:14:11.172Z,13.56
2018-04-14T01:15:05.778Z,13.56
2018-04-14T01:16:05.621Z,13.56
2018-04-14T01:17:06.179Z,13.56
2018-04-14T01:18:05.545Z,13.56
2018-04-14T01:19:06.417Z,13.69
2018-04-14T01:20:06.144Z,13.69
2018-04-14T01:21:05.557Z,13.69
2018-04-14T01:22:05.545Z,13.62
2018-04-14T01:23:06.416Z,13.75
2018-04-14T01:24:06.433Z,13.81
2018-04-14T01:25:05.845Z,13.81
2018-04-14T01:26:06.593Z,13.75
2018-04-14T01:27:05.704Z,13.69
2018-04-14T01:28:05.853Z,13.75
2018-04-14T01:29:06.022Z,13.69
2018-04-14T01:30:05.937Z,13.69
2018-04-14T01:31:06.128Z,13.62
2018-04-14T01:32:06.043Z,13.56
2018-04-14T01:33:06.429Z,13.56
2018-04-14T01:34:06.337Z,13.56
2018-04-14T01:35:06.712Z,13.62
2018-04-14T01:36:06.498Z,13.56
2018-04-14T01:37:06.035Z,13.56
2018-04-14T01:38:06.419Z,13.50
2018-04-14T01:39:06.422Z,13.50
2018-04-14T01:40:06.531Z,13.44
2018-04-14T01:41:11.289Z,13.44
2018-04-14T01:42:05.957Z,13.44
2018-04-14T01:43:05.888Z,13.44
2018-04-14T01:44:06.271Z,13.44
2018-04-14T01:45:05.877Z,13.44
2018-04-14T01:46:06.360Z,13.44
2018-04-14T01:47:05.863Z,13.44
2018-04-14T01:48:05.622Z,13.38
2018-04-14T01:49:05.621Z,13.62
2018-04-14T01:50:06.111Z,13.94
2018-04-14T01:51:05.937Z,14.06
2018-04-14T01:52:05.773Z,14.00
2018-04-14T01:53:05.613Z,13.81
2018-04-14T01:54:05.939Z,13.69
2018-04-14T01:55:05.899Z,13.56
2018-04-14T01:56:06.272Z,13.50
2018-04-14T01:57:05.855Z,13.50
2018-04-14T01:58:06.342Z,13.44
2018-04-14T01:59:06.242Z,13.38
2018-04-14T02:00:05.547Z,13.38
2018-04-14T02:01:05.546Z,13.38
2018-04-14T02:02:05.787Z,13.44
2018-04-14T02:03:06.685Z,13.44
2018-04-14T02:04:05.866Z,13.44
2018-04-14T02:05:06.509Z,13.44
2018-04-14T02:06:05.905Z,13.44
2018-04-14T02:07:05.890Z,13.69
2018-04-14T02:08:06.189Z,13.81
2018-04-14T02:09:05.615Z,13.94
2018-04-14T02:10:05.944Z,13.88
2018-04-14T02:11:05.554Z,13.94
2018-04-14T02:12:06.087Z,13.94
2018-04-14T02:13:06.002Z,13.81
2018-04-14T02:14:05.870Z,13.69
2018-04-14T02:15:06.127Z,13.69
2018-04-14T02:16:05.710Z,13.62
2018-04-14T02:17:06.111Z,13.56
2018-04-14T02:18:05.628Z,13.56
2018-04-14T02:19:06.190Z,13.56
2018-04-14T02:20:06.335Z,13.50
2018-04-14T02:21:11.386Z,13.50
2018-04-14T02:22:06.098Z,13.56
2018-04-14T02:23:05.907Z,13.50
2018-04-14T02:24:05.829Z,13.50
2018-04-14T02:25:06.104Z,13.50
2018-04-14T02:26:06.599Z,13.50
2018-04-14T02:27:12.277Z,13.50
2018-04-14T02:28:05.951Z,13.44
2018-04-14T02:29:06.000Z,13.50
2018-04-14T02:30:05.877Z,13.44
2018-04-14T02:31:06.342Z,13.44
2018-04-14T02:32:06.268Z,13.44
2018-04-14T02:33:05.745Z,13.44
2018-04-14T02:34:06.504Z,13.38
2018-04-14T02:35:06.492Z,13.38
2018-04-14T02:36:06.759Z,13.38
2018-04-14T02:37:05.697Z,13.31
2018-04-14T02:38:10.984Z,13.31
2018-04-14T02:39:06.589Z,13.31
2018-04-14T02:40:05.945Z,13.31
2018-04-14T02:41:06.420Z,13.25
2018-04-14T02:42:06.409Z,13.25
2018-04-14T02:43:06.677Z,13.25
2018-04-14T02:44:06.656Z,13.25
2018-04-14T02:45:06.501Z,13.19
2018-04-14T02:46:05.804Z,13.19
2018-04-14T02:47:06.516Z,13.19
2018-04-14T02:48:05.833Z,13.12
2018-04-14T02:49:10.542Z,13.12
2018-04-14T02:50:06.274Z,13.19
2018-04-14T02:51:05.952Z,13.12
2018-04-14T02:52:06.116Z,13.12
2018-04-14T02:53:06.509Z,13.06
2018-04-14T02:54:05.672Z,13.06
2018-04-14T02:55:06.024Z,13.00
2018-04-14T02:56:06.500Z,12.94
2018-04-14T02:57:06.111Z,12.94
2018-04-14T02:58:05.770Z,12.94
2018-04-14T02:59:06.026Z,12.88
2018-04-14T03:00:06.426Z,12.88
2018-04-14T03:01:06.180Z,12.88
2018-04-14T03:02:05.715Z,12.88
2018-04-14T03:03:06.341Z,12.88
2018-04-14T03:04:06.463Z,12.88
2018-04-14T03:05:06.113Z,12.88
2018-04-14T03:06:06.264Z,12.88
2018-04-14T03:07:05.881Z,12.81
2018-04-14T03:08:06.514Z,12.81
2018-04-14T03:09:06.130Z,12.81
2018-04-14T03:10:06.248Z,12.81
2018-04-14T03:11:06.373Z,12.81
2018-04-14T03:12:05.693Z,12.81
2018-04-14T03:13:06.512Z,12.88
2018-04-14T03:14:06.335Z,12.81
2018-04-14T03:15:06.594Z,12.81
2018-04-14T03:16:10.644Z,12.81
2018-04-14T03:17:06.334Z,12.81
2018-04-14T03:18:05.616Z,12.81
2018-04-14T03:19:06.270Z,12.81
2018-04-14T03:20:06.346Z,12.81
2018-04-14T03:21:05.939Z,12.81
2018-04-14T03:22:05.801Z,12.81
2018-04-14T03:23:05.965Z,12.81
2018-04-14T03:24:06.509Z,12.81
2018-04-14T03:25:05.656Z,12.81
2018-04-14T03:26:05.624Z,12.81
2018-04-14T03:27:05.538Z,12.81
2018-04-14T03:28:06.250Z,12.81
2018-04-14T03:29:06.038Z,12.94
2018-04-14T03:30:06.048Z,12.94
2018-04-14T03:31:05.557Z,12.94
2018-04-14T03:32:05.557Z,12.88
2018-04-14T03:33:05.783Z,12.88
2018-04-14T03:34:05.864Z,12.88
2018-04-14T03:35:05.943Z,12.88
2018-04-14T03:36:06.477Z,12.94
2018-04-14T03:37:05.795Z,12.88
2018-04-14T03:38:06.599Z,12.88
2018-04-14T03:39:05.543Z,12.88
2018-04-14T03:40:06.335Z,12.88
2018-04-14T03:41:05.787Z,12.88
2018-04-14T03:42:05.717Z,12.88
2018-04-14T03:43:06.120Z,12.88
2018-04-14T03:44:06.034Z,12.88
2018-04-14T03:45:05.645Z,12.88
2018-04-14T03:46:05.552Z,12.88
2018-04-14T03:47:05.627Z,12.88
2018-04-14T03:48:05.787Z,12.88
2018-04-14T03:49:06.607Z,12.81
2018-04-14T03:50:06.184Z,12.81
2018-04-14T03:51:06.912Z,12.81
2018-04-14T03:52:06.336Z,12.81
2018-04-14T03:53:06.083Z,12.88
2018-04-14T03:54:05.821Z,12.94
2018-04-14T03:55:05.855Z,13.00
2018-04-14T03:56:05.678Z,12.94
2018-04-14T03:57:06.381Z,12.94
2018-04-14T03:58:06.587Z,12.88
2018-04-14T03:59:06.182Z,12.88
2018-04-14T04:00:05.537Z,12.88
2018-04-14T04:01:06.589Z,12.88
2018-04-14T04:02:06.710Z,12.88
2018-04-14T04:03:06.195Z,12.88
2018-04-14T04:04:06.061Z,12.94
2018-04-14T04:05:06.201Z,12.88
2018-04-14T04:06:06.090Z,12.88
2018-04-14T04:07:05.855Z,12.88
2018-04-14T04:08:05.698Z,12.81
2018-04-14T04:09:06.259Z,12.88
2018-04-14T04:10:06.096Z,12.88
2018-04-14T04:11:05.992Z,13.06
2018-04-14T04:12:06.013Z,13.12
2018-04-14T04:13:06.430Z,13.19
2018-04-14T04:14:05.781Z,13.25
2018-04-14T04:15:06.022Z,13.31
2018-04-14T04:16:05.866Z,13.38
2018-04-14T04:17:10.950Z,13.38
2018-04-14T04:18:05.897Z,13.44
2018-04-14T04:19:06.350Z,13.25
2018-04-14T04:20:11.348Z,13.06
2018-04-14T04:21:05.778Z,12.88
2018-04-14T04:22:05.785Z,12.69
2018-04-14T04:23:05.786Z,12.56
2018-04-14T04:24:05.955Z,12.44
2018-04-14T04:25:06.493Z,12.31
2018-04-14T04:26:05.943Z,12.25
2018-04-14T04:27:06.260Z,12.12
2018-04-14T04:28:05.875Z,12.06
2018-04-14T04:29:06.160Z,12.00
2018-04-14T04:30:06.034Z,11.94
2018-04-14T04:31:06.114Z,11.88
2018-04-14T04:32:06.493Z,11.81
2018-04-14T04:33:05.942Z,11.81
2018-04-14T04:34:06.326Z,11.75
2018-04-14T04:35:05.971Z,11.69
2018-04-14T04:36:05.943Z,11.62
2018-04-14T04:37:06.312Z,11.56
2018-04-14T04:38:05.933Z,11.56
2018-04-14T04:39:05.807Z,11.50
2018-04-14T04:40:05.898Z,11.50
2018-04-14T04:41:05.904Z,11.44
2018-04-14T04:42:06.574Z,11.44
2018-04-14T04:43:06.338Z,11.38
2018-04-14T04:44:05.704Z,11.31
2018-04-14T04:45:05.727Z,11.31
2018-04-14T04:46:05.813Z,11.31
2018-04-14T04:47:06.178Z,11.31
2018-04-14T04:48:06.674Z,11.31
2018-04-14T04:49:06.905Z,11.25
2018-04-14T04:50:05.543Z,11.25
2018-04-14T04:51:06.425Z,11.19
2018-04-14T04:52:05.950Z,11.25
2018-04-14T04:53:05.857Z,11.19
2018-04-14T04:54:05.875Z,11.19
2018-04-14T04:55:06.099Z,11.19
2018-04-14T04:56:05.959Z,11.19
2018-04-14T04:57:10.645Z,11.25
2018-04-14T04:58:06.260Z,11.31
2018-04-14T04:59:05.775Z,11.38
2018-04-14T05:00:06.505Z,11.38
2018-04-14T05:01:06.504Z,11.56
2018-04-14T05:02:07.249Z,11.69
2018-04-14T05:03:10.981Z,11.75
2018-04-14T05:04:06.340Z,11.62
2018-04-14T05:05:06.366Z,11.56
2018-04-14T05:06:06.416Z,11.50
2018-04-14T05:07:05.946Z,11.44
2018-04-14T05:08:05.803Z,11.38
2018-04-14T05:09:06.445Z,11.38
2018-04-14T05:10:06.583Z,11.31
2018-04-14T05:11:05.781Z,11.25
2018-04-14T05:12:05.864Z,11.25
2018-04-14T05:13:06.111Z,11.25
2018-04-14T05:14:06.410Z,11.25
2018-04-14T05:15:11.804Z,11.25
2018-04-14T05:16:06.014Z,11.44
2018-04-14T05:17:05.911Z,11.62
2018-04-14T05:18:11.280Z,11.94
2018-04-14T05:19:06.041Z,12.44
2018-04-14T05:20:05.838Z,12.88
2018-04-14T05:21:05.709Z,13.00
2018-04-14T05:22:10.839Z,12.75
2018-04-14T05:23:06.036Z,12.56
2018-04-14T05:24:06.254Z,12.50
2018-04-14T05:25:05.666Z,13.06
2018-04-14T05:26:06.279Z,12.94
2018-04-14T05:27:06.071Z,12.69
2018-04-14T05:28:06.574Z,12.50
2018-04-14T05:29:05.579Z,12.38
2018-04-14T05:30:07.413Z,12.25
2018-04-14T05:31:11.219Z,12.19
2018-04-14T05:32:05.703Z,13.38
2018-04-14T05:33:11.289Z,14.38
2018-04-14T05:34:06.570Z,14.19
2018-04-14T05:35:05.468Z,13.81
2018-04-14T05:36:11.025Z,14.88
2018-04-14T05:37:06.672Z,16.00
2018-04-14T05:38:05.880Z,16.94
2018-04-14T05:39:05.808Z,17.75
2018-04-14T05:40:06.263Z,18.31
2018-04-14T05:41:06.275Z,18.81
2018-04-14T05:42:06.652Z,19.25
2018-04-14T05:43:06.341Z,19.69
2018-04-14T05:44:06.124Z,20.12
2018-04-14T05:45:12.388Z,20.44
2018-04-14T05:46:05.968Z,20.69
2018-04-14T05:47:05.788Z,20.94
2018-04-14T05:48:06.260Z,21.12
2018-04-14T05:49:11.093Z,21.31
2018-04-14T05:50:05.771Z,21.50
2018-04-14T05:51:05.871Z,21.69
2018-04-14T05:52:06.340Z,21.81
2018-04-14T05:53:11.623Z,21.88
2018-04-14T05:54:11.505Z,21.88
2018-04-14T05:55:06.194Z,21.81
2018-04-14T05:56:06.195Z,21.88
2018-04-14T05:57:06.229Z,21.94
2018-04-14T05:58:05.626Z,21.94
2018-04-14T05:59:06.329Z,21.81
2018-04-14T06:00:05.875Z,21.81
2018-04-14T06:01:05.632Z,21.88
2018-04-14T06:02:05.617Z,21.94
2018-04-14T06:03:06.272Z,22.00
2018-04-14T06:04:05.937Z,22.00
2018-04-14T06:05:06.420Z,22.00
2018-04-14T06:06:05.818Z,22.00
2018-04-14T06:07:05.785Z,22.00
2018-04-14T06:08:06.231Z,21.94
2018-04-14T06:09:05.676Z,21.81
2018-04-14T06:10:05.718Z,21.81
2018-04-14T06:11:06.576Z,21.56
2018-04-14T06:12:05.711Z,21.38
2018-04-14T06:13:06.202Z,21.12
2018-04-14T06:14:05.885Z,20.88
2018-04-14T06:15:06.186Z,20.62
2018-04-14T06:16:06.188Z,20.50
2018-04-14T06:17:05.781Z,20.31
2018-04-14T06:18:05.792Z,20.19
2018-04-14T06:19:06.667Z,19.88
2018-04-14T06:20:05.597Z,19.75
2018-04-14T06:21:06.048Z,19.94
2018-04-14T06:22:06.474Z,20.12
2018-04-14T06:23:05.788Z,20.38
2018-04-14T06:24:07.631Z,20.50
2018-04-14T06:25:06.468Z,20.56
2018-04-14T06:26:06.232Z,20.81
2018-04-14T06:27:06.388Z,20.81
2018-04-14T06:28:10.971Z,21.00
2018-04-14T06:29:05.783Z,21.00
2018-04-14T06:30:05.775Z,21.12
2018-04-14T06:31:05.928Z,21.12
2018-04-14T06:32:11.507Z,21.00
2018-04-14T06:33:06.103Z,21.00
2018-04-14T06:34:06.346Z,20.88
2018-04-14T06:35:06.202Z,20.88
2018-04-14T06:36:06.214Z,20.88
2018-04-14T06:37:12.280Z,21.06
2018-04-14T06:38:06.101Z,21.19
2018-04-14T06:39:05.719Z,21.38
2018-04-14T06:40:06.284Z,21.38
2018-04-14T06:41:05.913Z,21.44
2018-04-14T06:42:06.222Z,21.50
2018-04-14T06:43:06.082Z,21.62
2018-04-14T06:44:06.046Z,21.69
2018-04-14T06:45:06.340Z,21.69
2018-04-14T06:46:11.674Z,21.69
2018-04-14T06:47:06.343Z,21.69
2018-04-14T06:48:06.030Z,21.69
2018-04-14T06:49:05.938Z,21.75
2018-04-14T06:50:05.773Z,21.88
2018-04-14T06:51:05.716Z,21.94
2018-04-14T06:52:05.975Z,22.00
2018-04-14T06:53:06.347Z,22.06
2018-04-14T06:54:06.427Z,22.12
2018-04-14T06:55:06.271Z,22.06
2018-04-14T06:56:06.008Z,22.12
2018-04-14T06:57:06.646Z,22.06
2018-04-14T06:58:05.544Z,22.06
2018-04-14T06:59:06.190Z,22.12
2018-04-14T07:00:06.260Z,22.31
2018-04-14T07:01:05.866Z,22.56
2018-04-14T07:02:05.936Z,22.69
2018-04-14T07:03:05.809Z,22.75
2018-04-14T07:04:06.499Z,22.81
2018-04-14T07:05:06.185Z,22.88
2018-04-14T07:06:05.867Z,22.94
2018-04-14T07:07:06.117Z,22.94
2018-04-14T07:08:06.248Z,22.94
2018-04-14T07:09:06.162Z,23.00
2018-04-14T07:10:05.800Z,23.00
2018-04-14T07:11:06.187Z,23.06
2018-04-14T07:12:06.256Z,23.12
2018-04-14T07:13:06.775Z,23.19
2018-04-14T07:14:05.955Z,23.31
2018-04-14T07:15:06.083Z,23.31
2018-04-14T07:16:06.033Z,23.31
2018-04-14T07:17:05.660Z,23.38
2018-04-14T07:18:11.113Z,23.44
2018-04-14T07:19:06.577Z,23.50
2018-04-14T07:20:05.882Z,23.56
2018-04-14T07:21:06.514Z,23.56
2018-04-14T07:22:06.208Z,23.62
2018-04-14T07:23:06.175Z,23.69
2018-04-14T07:24:05.953Z,23.69
2018-04-14T07:25:05.957Z,23.62
2018-04-14T07:26:06.112Z,23.62
2018-04-14T07:27:06.133Z,23.62
2018-04-14T07:28:06.117Z,23.69
2018-04-14T07:29:06.440Z,23.62
2018-04-14T07:30:06.513Z,23.69
2018-04-14T07:31:05.720Z,23.69
2018-04-14T07:32:06.622Z,23.75
2018-04-14T07:33:05.616Z,23.75
2018-04-14T07:34:10.954Z,23.75
2018-04-14T07:35:05.804Z,23.81
2018-04-14T07:36:06.426Z,23.88
2018-04-14T07:37:06.325Z,24.06
2018-04-14T07:38:06.045Z,24.06
2018-04-14T07:39:06.349Z,24.06
2018-04-14T07:40:06.371Z,24.06
2018-04-14T07:41:05.955Z,24.06
2018-04-14T07:42:05.889Z,24.00
2018-04-14T07:43:05.869Z,23.94
2018-04-14T07:44:06.471Z,24.00
2018-04-14T07:45:06.126Z,24.06
2018-04-14T07:46:06.422Z,24.06
2018-04-14T07:47:06.191Z,24.12
2018-04-14T07:48:06.269Z,24.25
2018-04-14T07:49:06.103Z,24.25
2018-04-14T07:50:06.398Z,24.25
2018-04-14T07:51:11.510Z,24.25
2018-04-14T07:52:06.197Z,24.25
2018-04-14T07:53:11.851Z,24.38
2018-04-14T07:54:11.046Z,24.44
2018-04-14T07:55:06.438Z,24.38
2018-04-14T07:56:06.033Z,24.31
2018-04-14T07:57:05.831Z,24.31
2018-04-14T07:58:06.026Z,24.31
2018-04-14T07:59:06.601Z,24.38
2018-04-14T08:00:05.872Z,24.38
2018-04-14T08:01:06.124Z,24.38
2018-04-14T08:02:05.720Z,24.31
2018-04-14T08:03:05.556Z,24.44
2018-04-14T08:04:05.945Z,24.38
2018-04-14T08:05:06.205Z,24.31
2018-04-14T08:06:06.353Z,24.31
2018-04-14T08:07:05.893Z,24.31
2018-04-14T08:08:07.567Z,24.31
2018-04-14T08:09:06.435Z,24.25
2018-04-14T08:10:06.026Z,24.19
2018-04-14T08:11:06.099Z,24.19
2018-04-14T08:12:06.683Z,24.12
2018-04-14T08:13:06.536Z,24.06
2018-04-14T08:14:06.116Z,23.94
2018-04-14T08:15:05.744Z,23.81
2018-04-14T08:16:05.955Z,23.75
2018-04-14T08:17:06.064Z,23.81
2018-04-14T08:18:05.785Z,23.81
2018-04-14T08:19:05.884Z,23.81
2018-04-14T08:20:06.309Z,23.75
2018-04-14T08:21:11.056Z,23.69
2018-04-14T08:22:05.649Z,23.56
2018-04-14T08:23:06.431Z,23.56
2018-04-14T08:24:06.356Z,23.50
2018-04-14T08:25:06.184Z,23.50
2018-04-14T08:26:06.430Z,23.44
2018-04-14T08:27:06.591Z,23.38
2018-04-14T08:28:06.298Z,23.38
2018-04-14T08:29:06.272Z,23.31
2018-04-14T08:30:06.524Z,23.25
2018-04-14T08:31:05.978Z,23.25
2018-04-14T08:32:06.268Z,23.25
2018-04-14T08:33:06.054Z,23.25
2018-04-14T08:34:05.875Z,23.31
2018-04-14T08:35:06.456Z,23.31
2018-04-14T08:36:11.583Z,23.25
2018-04-14T08:37:06.534Z,23.25
2018-04-14T08:38:06.202Z,23.19
2018-04-14T08:39:06.280Z,23.12
2018-04-14T08:40:05.977Z,23.06
2018-04-14T08:41:11.051Z,23.00
2018-04-14T08:42:06.436Z,23.00
2018-04-14T08:43:06.057Z,22.88
2018-04-14T08:44:05.794Z,22.81
2018-04-14T08:45:06.838Z,22.75
2018-04-14T08:46:05.671Z,22.69
2018-04-14T08:47:05.555Z,22.69
2018-04-14T08:48:05.918Z,22.62
2018-04-14T08:49:05.940Z,22.69
2018-04-14T08:50:06.595Z,22.69
2018-04-14T08:51:11.566Z,22.69
2018-04-14T08:52:06.291Z,22.56
2018-04-14T08:53:06.100Z,22.50
2018-04-14T08:54:06.194Z,22.81
2018-04-14T08:55:06.382Z,22.81
2018-04-14T08:56:05.867Z,22.94
2018-04-14T08:57:06.050Z,22.94
2018-04-14T08:58:06.156Z,22.94
2018-04-14T08:59:05.817Z,23.00
2018-04-14T09:00:05.949Z,23.12
2018-04-14T09:01:06.013Z,23.06
2018-04-14T09:02:05.647Z,23.06
2018-04-14T09:03:05.952Z,23.06
2018-04-14T09:04:06.659Z,22.94
2018-04-14T09:05:06.266Z,22.75
2018-04-14T09:06:06.189Z,22.75
2018-04-14T09:07:05.952Z,22.75
2018-04-14T09:08:06.614Z,22.88
2018-04-14T09:09:11.301Z,22.88
2018-04-14T09:10:06.048Z,22.88
2018-04-14T09:11:05.970Z,22.94
2018-04-14T09:12:10.706Z,22.94
2018-04-14T09:13:06.352Z,23.00
2018-04-14T09:14:05.959Z,22.94
2018-04-14T09:15:06.441Z,23.00
2018-04-14T09:16:12.312Z,22.88
2018-04-14T09:17:06.125Z,22.81
2018-04-14T09:18:06.569Z,22.75
2018-04-14T09:19:06.185Z,22.62
2018-04-14T09:20:06.179Z,22.50
2018-04-14T09:21:11.030Z,22.56
2018-04-14T09:22:06.067Z,22.50
2018-04-14T09:23:05.666Z,22.50
2018-04-14T09:24:06.663Z,22.50
2018-04-14T09:25:10.634Z,22.56
2018-04-14T09:26:06.263Z,22.50
2018-04-14T09:27:06.110Z,22.56
2018-04-14T09:28:12.120Z,22.44
2018-04-14T09:29:05.818Z,22.50
2018-04-14T09:30:06.590Z,22.44
2018-04-14T09:31:06.416Z,22.50
2018-04-14T09:32:05.885Z,22.44
2018-04-14T09:33:06.319Z,22.44
2018-04-14T09:34:11.036Z,22.38
2018-04-14T09:35:05.786Z,22.38
2018-04-14T09:36:11.356Z,22.44
2018-04-14T09:37:06.176Z,22.38
2018-04-14T09:38:06.873Z,22.31
2018-04-14T09:39:06.198Z,22.25
2018-04-14T09:40:05.943Z,22.12
2018-04-14T09:41:06.187Z,22.12
2018-04-14T09:42:06.286Z,22.06
2018-04-14T09:43:06.163Z,21.88
2018-04-14T09:44:06.189Z,21.75
2018-04-14T09:45:05.523Z,21.69
2018-04-14T09:46:06.372Z,21.50
2018-04-14T09:47:07.395Z,21.44
2018-04-14T09:48:06.502Z,21.38
2018-04-14T09:49:05.941Z,21.25
2018-04-14T09:50:05.777Z,21.12
2018-04-14T09:51:06.415Z,21.12
2018-04-14T09:52:06.127Z,21.12
2018-04-14T09:53:06.450Z,21.12
2018-04-14T09:54:06.410Z,21.19
2018-04-14T09:55:05.783Z,21.25
2018-04-14T09:56:06.329Z,21.19
2018-04-14T09:57:06.502Z,21.25
2018-04-14T09:58:05.954Z,21.31
2018-04-14T09:59:06.346Z,21.31
2018-04-14T10:00:06.027Z,21.25
2018-04-14T10:01:06.116Z,21.25
2018-04-14T10:02:06.356Z,21.31
2018-04-14T10:03:05.648Z,21.44
2018-04-14T10:04:05.806Z,21.50
2018-04-14T10:05:06.392Z,21.56
2018-04-14T10:06:05.696Z,21.56
2018-04-14T10:07:06.310Z,21.56
2018-04-14T10:08:05.698Z,21.62
2018-04-14T10:09:05.935Z,21.88
2018-04-14T10:10:06.518Z,21.94
2018-04-14T10:11:05.881Z,22.00
2018-04-14T10:12:06.603Z,21.94
2018-04-14T10:13:06.051Z,21.88
2018-04-14T10:14:06.423Z,21.81
2018-04-14T10:15:05.949Z,21.81
2018-04-14T10:16:06.521Z,21.81
2018-04-14T10:17:10.593Z,21.94
2018-04-14T10:18:11.338Z,22.00
2018-04-14T10:19:07.405Z,22.06
2018-04-14T10:20:06.347Z,22.06
2018-04-14T10:21:06.346Z,22.00
2018-04-14T10:22:06.895Z,21.94
2018-04-14T10:23:06.578Z,21.94
2018-04-14T10:24:06.034Z,21.88
2018-04-14T10:25:06.030Z,21.81
2018-04-14T10:26:06.929Z,21.81
2018-04-14T10:27:06.446Z,21.88
2018-04-14T10:28:06.133Z,21.88
2018-04-14T10:29:06.416Z,21.81
2018-04-14T10:30:06.261Z,21.81
2018-04-14T10:31:05.976Z,21.81
2018-04-14T10:32:06.335Z,21.81
2018-04-14T10:33:06.174Z,21.75
2018-04-14T10:34:05.931Z,21.75
2018-04-14T10:35:05.547Z,21.75
2018-04-14T10:36:05.537Z,21.69
2018-04-14T10:37:11.509Z,21.75
2018-04-14T10:38:06.977Z,21.62
2018-04-14T10:39:06.553Z,21.62
2018-04-14T10:40:06.258Z,21.69
2018-04-14T10:41:05.715Z,21.81
2018-04-14T10:42:06.374Z,21.88
2018-04-14T10:43:05.953Z,21.94
2018-04-14T10:44:06.669Z,21.88
2018-04-14T10:45:06.673Z,22.00
2018-04-14T10:46:06.222Z,22.00
2018-04-14T10:47:06.445Z,22.06
2018-04-14T10:48:06.445Z,22.06
2018-04-14T10:49:05.720Z,22.06
2018-04-14T10:50:05.847Z,22.00
2018-04-14T10:51:05.715Z,22.00
2018-04-14T10:52:06.105Z,21.94
2018-04-14T10:53:05.540Z,21.88
2018-04-14T10:54:06.432Z,21.81
2018-04-14T10:55:06.107Z,21.81
2018-04-14T10:56:05.565Z,21.75
2018-04-14T10:57:06.503Z,21.94
2018-04-14T10:58:10.726Z,22.12
2018-04-14T10:59:06.363Z,22.06
2018-04-14T11:00:06.632Z,22.31
2018-04-14T11:01:05.874Z,22.31
2018-04-14T11:02:06.018Z,22.50
2018-04-14T11:03:05.971Z,22.44
2018-04-14T11:04:06.114Z,22.38
2018-04-14T11:05:06.190Z,22.38
2018-04-14T11:06:06.255Z,22.44
2018-04-14T11:07:06.114Z,22.50
2018-04-14T11:08:06.008Z,22.50
2018-04-14T11:09:05.782Z,22.56
2018-04-14T11:10:05.800Z,22.50
2018-04-14T11:11:06.475Z,22.69
2018-04-14T11:12:05.867Z,22.62
2018-04-14T11:13:05.893Z,22.56
2018-04-14T11:14:06.341Z,22.62
2018-04-14T11:15:05.856Z,22.50
2018-04-14T11:16:05.864Z,22.50
2018-04-14T11:17:05.788Z,22.44
2018-04-14T11:18:05.787Z,22.44
2018-04-14T11:19:07.061Z,22.38
2018-04-14T11:20:06.423Z,22.31
2018-04-14T11:21:06.197Z,22.25
2018-04-14T11:22:05.958Z,22.19
2018-04-14T11:23:05.790Z,22.12
2018-04-14T11:24:11.567Z,22.12
2018-04-14T11:25:06.180Z,22.31
2018-04-14T11:26:05.461Z,22.50
2018-04-14T11:27:05.706Z,22.69
2018-04-14T11:28:06.273Z,22.81
2018-04-14T11:29:06.040Z,23.00
2018-04-14T11:30:06.480Z,23.00
2018-04-14T11:31:06.276Z,23.00
2018-04-14T11:32:06.366Z,23.19
2018-04-14T11:33:05.944Z,23.06
2018-04-14T11:34:06.043Z,23.25
2018-04-14T11:35:06.267Z,23.31
2018-04-14T11:36:05.942Z,23.25
2018-04-14T11:37:05.708Z,23.25
2018-04-14T11:38:05.797Z,23.25
2018-04-14T11:39:06.343Z,23.31
2018-04-14T11:40:06.412Z,23.19
2018-04-14T11:41:06.441Z,23.12
2018-04-14T11:42:06.455Z,23.06
2018-04-14T11:43:05.876Z,22.94
2018-04-14T11:44:05.954Z,22.94
2018-04-14T11:45:06.844Z,23.12
2018-04-14T11:46:06.024Z,23.19
2018-04-14T11:47:06.446Z,23.19
2018-04-14T11:48:06.049Z,23.19
2018-04-14T11:49:05.717Z,23.56
2018-04-14T11:50:05.807Z,23.62
2018-04-14T11:51:06.183Z,23.81
2018-04-14T11:52:06.887Z,23.81
2018-04-14T11:53:06.496Z,24.00
2018-04-14T11:54:11.104Z,23.88
2018-04-14T11:55:05.726Z,23.88
2018-04-14T11:56:06.278Z,23.56
2018-04-14T11:57:05.622Z,23.38
2018-04-14T11:58:06.024Z,23.38
2018-04-14T11:59:06.643Z,23.62
2018-04-14T12:00:06.118Z,23.88
2018-04-14T12:01:05.936Z,23.62
2018-04-14T12:02:05.540Z,23.44
2018-04-14T12:03:05.803Z,23.31
2018-04-14T12:04:06.197Z,23.31
2018-04-14T12:05:06.337Z,23.19
2018-04-14T12:06:06.022Z,23.06
2018-04-14T12:07:06.114Z,23.06
2018-04-14T12:08:05.788Z,23.00
2018-04-14T12:09:06.457Z,22.94
2018-04-14T12:10:05.939Z,22.94
2018-04-14T12:11:06.214Z,23.00
2018-04-14T12:12:10.805Z,23.06
2018-04-14T12:13:05.871Z,23.06
2018-04-14T12:14:05.633Z,22.94
2018-04-14T12:15:06.280Z,22.94
2018-04-14T12:16:06.106Z,22.94
2018-04-14T12:17:05.827Z,23.00
2018-04-14T12:18:05.961Z,23.00
2018-04-14T12:19:05.848Z,23.06
2018-04-14T12:20:06.247Z,23.00
2018-04-14T12:21:06.693Z,23.00
2018-04-14T12:22:06.590Z,23.00
2018-04-14T12:23:06.065Z,22.94
2018-04-14T12:24:06.438Z,22.81
2018-04-14T12:25:06.337Z,22.81
2018-04-14T12:26:05.797Z,22.88
2018-04-14T12:27:06.063Z,22.88
2018-04-14T12:28:05.665Z,22.88
2018-04-14T12:29:06.028Z,22.81
2018-04-14T12:30:06.334Z,22.62
2018-04-14T12:31:05.858Z,22.62
2018-04-14T12:32:06.452Z,22.50
2018-04-14T12:33:06.466Z,22.50
2018-04-14T12:34:06.271Z,22.56
2018-04-14T12:35:06.263Z,22.50
2018-04-14T12:36:06.112Z,22.44
2018-04-14T12:37:06.457Z,22.38
2018-04-14T12:38:06.126Z,22.31
2018-04-14T12:39:05.698Z,22.25
2018-04-14T12:40:05.703Z,22.19
2018-04-14T12:41:06.755Z,22.12
2018-04-14T12:42:05.730Z,22.06
2018-04-14T12:43:06.018Z,22.06
2018-04-14T12:44:06.557Z,22.19
2018-04-14T12:45:07.206Z,22.12
2018-04-14T12:46:06.502Z,22.19
2018-04-14T12:47:06.206Z,22.19
2018-04-14T12:48:05.949Z,22.19
2018-04-14T12:49:05.727Z,22.31
2018-04-14T12:50:05.929Z,22.50
2018-04-14T12:51:10.723Z,22.56
2018-04-14T12:52:06.972Z,22.62